Time;durP1;ratioP1;P1;durP2;ratioP2;P2;SDS_P1;SDS_P2;PMS_P1;PMS_P2;Temp;Humidity;BMP_temperature;BMP_pressure;BME280_temperature;BME280_humidity;BME280_pressure;Samples;Min_cycle;Max_cycle;Signal;HPM_P1;HPM_P2
2021/08/25 00:03:17;;;;;;;13.27;8.25;;;;;;;19.68;100.00;94644.56;10371018;28;20030;-70
2021/08/25 00:08:17;;;;;;;13.50;7.65;;;;;;;19.62;98.39;94649.44;10370016;28;20054;-70
2021/08/25 00:13:18;;;;;;;14.37;8.63;;;;;;;19.58;100.00;94648.50;10370231;28;20448;-70
2021/08/25 00:18:19;;;;;;;16.10;9.10;;;;;;;19.58;99.12;94646.56;10370036;28;20281;-71
2021/08/25 00:23:19;;;;;;;12.95;7.70;;;;;;;19.50;97.70;94658.31;10369578;28;20462;-71
2021/08/25 00:28:22;;;;;;;13.02;7.80;;;;;;;19.44;100.00;94654.22;10369972;28;20625;-71
2021/08/25 00:33:23;;;;;;;16.77;9.30;;;;;;;19.28;100.00;94652.06;10369842;28;20038;-71
2021/08/25 00:38:23;;;;;;;14.90;8.00;;;;;;;19.34;100.00;94649.13;10368810;28;20025;-70
2021/08/25 00:43:24;;;;;;;13.47;9.20;;;;;;;19.36;100.00;94652.34;10368915;28;20319;-71
2021/08/25 00:48:25;;;;;;;15.18;9.20;;;;;;;19.41;100.00;94641.22;10368812;28;20065;-70
2021/08/25 00:53:26;;;;;;;16.48;12.13;;;;;;;19.41;100.00;94642.03;10367454;28;20030;-70
2021/08/25 00:58:26;;;;;;;24.23;13.83;;;;;;;19.34;100.00;94632.78;10367725;28;20473;-70
2021/08/25 01:03:32;;;;;;;25.17;15.35;;;;;;;19.48;100.00;94636.06;10367861;28;20481;-70
2021/08/25 01:08:32;;;;;;;21.48;14.77;;;;;;;19.33;100.00;94642.09;10368003;28;20042;-70
2021/08/25 01:13:34;;;;;;;26.23;16.37;;;;;;;19.24;100.00;94626.63;10368225;28;20038;-70
2021/08/25 01:18:35;;;;;;;25.13;15.07;;;;;;;19.39;100.00;94633.38;10367748;28;20420;-70
2021/08/25 01:23:40;;;;;;;24.90;16.17;;;;;;;19.17;100.00;94626.31;10366699;28;20068;-71
2021/08/25 01:28:48;;;;;;;22.25;15.32;;;;;;;19.27;100.00;94614.22;10367269;28;20030;-70
2021/08/25 01:33:48;;;;;;;26.40;15.80;;;;;;;19.43;100.00;94609.00;10367082;28;20034;-70
2021/08/25 01:38:55;;;;;;;28.08;16.15;;;;;;;19.44;100.00;94594.25;10366973;28;20030;-70
2021/08/25 01:43:58;;;;;;;27.42;17.65;;;;;;;19.49;100.00;94590.50;10367121;28;20078;-70
2021/08/25 01:48:59;;;;;;;31.23;18.70;;;;;;;19.59;100.00;94580.00;10367030;28;20030;-71
2021/08/25 01:53:59;;;;;;;22.08;15.73;;;;;;;19.63;100.00;94561.84;10366839;28;20393;-70
2021/08/25 01:59:01;;;;;;;22.83;15.65;;;;;;;19.61;100.00;94560.59;10366252;28;20018;-70
2021/08/25 02:04:02;;;;;;;21.10;13.70;;;;;;;19.66;100.00;94574.03;10366634;28;20041;-71
2021/08/25 02:09:02;;;;;;;18.00;12.05;;;;;;;19.43;100.00;94570.84;10365955;28;20494;-70
2021/08/25 02:14:03;;;;;;;16.02;9.50;;;;;;;19.25;100.00;94562.78;10366278;28;20052;-71
2021/08/25 02:19:03;;;;;;;14.15;8.43;;;;;;;19.22;100.00;94555.28;10366326;28;20405;-71
2021/08/25 02:24:04;;;;;;;13.48;7.32;;;;;;;19.16;100.00;94556.63;10366252;28;20038;-70
2021/08/25 02:29:04;;;;;;;14.52;8.00;;;;;;;19.11;99.21;94548.66;10366057;28;20312;-71
2021/08/25 02:34:05;;;;;;;9.13;6.28;;;;;;;18.93;96.39;94559.66;10366192;28;20040;-71
2021/08/25 02:39:05;;;;;;;8.27;6.07;;;;;;;18.77;95.90;94558.63;10365967;28;20030;-71
2021/08/25 02:44:06;;;;;;;8.47;5.60;;;;;;;18.53;96.87;94562.75;10369111;28;20030;-70
2021/08/25 02:49:06;;;;;;;7.88;5.65;;;;;;;18.45;98.06;94579.94;10373586;28;20781;-70
2021/08/25 02:54:06;;;;;;;8.57;5.17;;;;;;;18.45;98.55;94582.66;10355999;28;20037;-70
2021/08/25 02:59:07;;;;;;;11.73;5.93;;;;;;;18.48;97.19;94598.31;10373359;28;20018;-71
2021/08/25 03:04:07;;;;;;;15.60;5.40;;;;;;;18.66;96.37;94611.84;10373201;28;20276;-71
2021/08/25 03:09:07;;;;;;;5.67;5.10;;;;;;;18.69;97.03;94630.25;10372908;28;20045;-71
2021/08/25 03:14:08;;;;;;;7.13;4.23;;;;;;;18.76;96.37;94635.97;10371341;28;20571;-71
2021/08/25 03:19:08;;;;;;;9.95;5.35;;;;;;;18.83;94.62;94635.47;10371424;28;20052;-71
2021/08/25 03:24:09;;;;;;;9.53;5.47;;;;;;;18.81;96.25;94637.72;10372653;28;20030;-71
2021/08/25 03:29:09;;;;;;;11.82;5.68;;;;;;;18.87;96.98;94634.50;10372104;28;20088;-71
2021/08/25 03:34:10;;;;;;;9.60;6.60;;;;;;;18.99;96.61;94633.00;10354123;28;20028;-71
2021/08/25 03:39:10;;;;;;;18.93;10.30;;;;;;;18.91;100.00;94635.44;10371027;28;20756;-72
2021/08/25 03:44:10;;;;;;;16.47;10.60;;;;;;;18.94;100.00;94632.06;10371363;28;20277;-71
2021/08/25 03:49:11;;;;;;;12.90;9.77;;;;;;;18.93;100.00;94630.47;10371030;28;20034;-71
2021/08/25 03:54:11;;;;;;;17.60;10.70;;;;;;;18.88;100.00;94627.13;10370546;28;20026;-71
2021/08/25 03:59:12;;;;;;;19.90;11.95;;;;;;;18.85;100.00;94625.03;10353638;28;20037;-71
2021/08/25 04:04:12;;;;;;;21.25;11.75;;;;;;;18.85;100.00;94617.69;10370775;28;20033;-71
2021/08/25 04:09:13;;;;;;;18.73;11.63;;;;;;;18.90;100.00;94619.44;10353030;28;20072;-71
2021/08/25 04:14:13;;;;;;;21.03;13.50;;;;;;;18.57;100.00;94601.81;10370479;28;20299;-71
2021/08/25 04:19:13;;;;;;;29.27;15.07;;;;;;;18.20;100.00;94615.06;10369661;28;20026;-71
2021/08/25 04:24:14;;;;;;;37.80;17.30;;;;;;;17.67;100.00;94598.00;10369822;28;20033;-71
2021/08/25 04:29:14;;;;;;;27.30;16.85;;;;;;;17.55;100.00;94606.00;10369224;28;20121;-70
2021/08/25 04:34:15;;;;;;;34.77;19.50;;;;;;;17.42;100.00;94602.34;10368632;28;20096;-71
2021/08/25 04:39:17;;;;;;;36.47;22.58;;;;;;;17.33;100.00;94604.25;10368009;28;20026;-70
2021/08/25 04:44:17;;;;;;;27.33;16.67;;;;;;;17.21;100.00;94602.97;10349362;28;20035;-71
2021/08/25 04:49:17;;;;;;;28.07;14.90;;;;;;;17.19;100.00;94596.25;10366754;28;20030;-71
2021/08/25 04:54:17;;;;;;;25.30;13.20;;;;;;;17.19;100.00;94588.94;10366386;28;20030;-72
2021/08/25 04:59:18;;;;;;;14.80;9.53;;;;;;;17.34;100.00;94581.41;10366508;28;20028;-72
2021/08/25 05:04:18;;;;;;;22.53;10.20;;;;;;;17.48;100.00;94579.31;10334281;28;20085;-71
2021/08/25 05:09:18;;;;;;;18.97;10.23;;;;;;;17.79;100.00;94572.91;10324116;28;20045;-71
2021/08/25 05:14:19;;;;;;;19.43;11.10;;;;;;;18.05;100.00;94577.50;10326917;28;20026;-71
2021/08/25 05:19:19;;;;;;;21.65;11.60;;;;;;;18.45;100.00;94579.94;10325220;28;20049;-71
2021/08/25 05:24:20;;;;;;;14.93;9.00;;;;;;;19.03;100.00;94571.31;10326569;28;20026;-71
2021/08/25 05:29:20;;;;;;;14.75;7.60;;;;;;;19.36;100.00;94576.03;10325575;28;20022;-71
2021/08/25 05:34:21;;;;;;;14.50;7.15;;;;;;;19.85;100.00;94564.56;10326399;28;20126;-71
2021/08/25 05:39:21;;;;;;;12.00;7.00;;;;;;;19.89;100.00;94570.94;10326030;28;20058;-70
2021/08/25 05:44:21;;;;;;;11.67;7.20;;;;;;;19.82;100.00;94567.97;10325121;28;20030;-70
2021/08/25 05:49:22;;;;;;;22.13;7.90;;;;;;;20.47;100.00;94579.91;10324925;28;20351;-71
2021/08/25 05:54:22;;;;;;;10.37;6.77;;;;;;;21.65;100.00;94573.75;10324931;28;20363;-71
2021/08/25 05:59:23;;;;;;;14.13;6.73;;;;;;;22.66;91.83;94576.41;10324955;28;20466;-71
2021/08/25 06:04:23;;;;;;;9.80;7.55;;;;;;;23.80;81.66;94568.31;10324809;28;20030;-71
2021/08/25 06:09:23;;;;;;;10.13;7.20;;;;;;;25.11;72.45;94563.13;10324206;28;20141;-71
2021/08/25 06:14:24;;;;;;;14.47;7.63;;;;;;;26.08;63.34;94558.88;10324505;28;20493;-71
2021/08/25 06:19:24;;;;;;;14.13;6.10;;;;;;;27.11;56.53;94558.22;10328381;28;20053;-71
2021/08/25 06:24:25;;;;;;;14.15;7.45;;;;;;;27.94;54.07;94549.56;10333551;28;20044;-71
2021/08/25 06:29:25;;;;;;;13.37;7.30;;;;;;;27.78;53.33;94545.19;10332863;28;20371;-71
2021/08/25 06:34:26;;;;;;;13.60;7.40;;;;;;;27.95;50.69;94548.38;10332424;28;20030;-71
2021/08/25 06:39:26;;;;;;;11.37;7.23;;;;;;;28.93;49.20;94532.75;10332449;28;20328;-71
2021/08/25 06:44:26;;;;;;;12.70;7.27;;;;;;;29.48;46.04;94532.25;10332235;28;20026;-71
2021/08/25 06:49:27;;;;;;;9.85;6.38;;;;;;;29.96;44.22;94539.22;10314369;28;20030;-71
2021/08/25 06:54:27;;;;;;;13.33;7.73;;;;;;;30.40;43.60;94525.88;10331879;28;20397;-71
2021/08/25 06:59:27;;;;;;;11.33;6.30;;;;;;;31.31;40.90;94523.97;10331113;28;20643;-71
2021/08/25 07:04:28;;;;;;;16.13;5.93;;;;;;;31.48;39.43;94527.75;10331090;28;20038;-71
2021/08/25 07:09:28;;;;;;;12.53;6.70;;;;;;;31.77;38.62;94535.75;10330989;28;20125;-71
2021/08/25 07:14:29;;;;;;;13.47;8.67;;;;;;;31.80;40.25;94529.41;10331076;28;20109;-71
2021/08/25 07:19:29;;;;;;;23.83;11.87;;;;;;;30.14;45.88;94536.34;10330815;28;20026;-71
2021/08/25 07:24:29;;;;;;;21.30;11.63;;;;;;;29.49;49.99;94538.59;10331184;28;20033;-71
2021/08/25 07:29:30;;;;;;;23.53;12.30;;;;;;;29.74;49.55;94534.94;10329570;28;20335;-71
2021/08/25 07:34:30;;;;;;;17.63;10.60;;;;;;;30.11;46.73;94531.59;10330438;28;20482;-71
2021/08/25 07:39:31;;;;;;;22.90;11.53;;;;;;;30.82;45.72;94532.31;10330176;28;20477;-71
2021/08/25 07:44:31;;;;;;;18.37;9.77;;;;;;;32.26;41.04;94532.00;10330309;28;20034;-71
2021/08/25 07:49:31;;;;;;;21.27;10.40;;;;;;;33.17;39.16;94519.03;10329766;28;20462;-72
2021/08/25 07:54:32;;;;;;;15.77;9.73;;;;;;;34.32;37.03;94512.41;10329468;28;20484;-71
2021/08/25 07:59:32;;;;;;;19.23;9.93;;;;;;;33.18;38.14;94520.59;10329348;28;20101;-71
2021/08/25 08:04:33;;;;;;;17.03;9.70;;;;;;;34.11;36.14;94522.03;10329335;28;20038;-71
2021/08/25 08:09:33;;;;;;;24.50;10.37;;;;;;;34.10;35.87;94512.84;10328957;28;20137;-71
2021/08/25 08:14:34;;;;;;;17.03;9.73;;;;;;;34.42;35.46;94507.81;10311270;28;20037;-71
2021/08/25 08:19:34;;;;;;;19.05;8.75;;;;;;;35.16;34.55;94503.63;10328605;28;20055;-71
2021/08/25 08:24:34;;;;;;;12.80;8.27;;;;;;;36.64;31.94;94499.41;10327875;28;20839;-71
2021/08/25 08:29:35;;;;;;;14.03;8.37;;;;;;;37.05;31.71;94500.47;10326345;28;20053;-72
2021/08/25 08:34:36;;;;;;;15.45;9.70;;;;;;;37.06;31.35;94497.22;10327111;28;20456;-71
2021/08/25 08:39:36;;;;;;;14.35;10.35;;;;;;;36.26;32.54;94501.72;10327388;28;20042;-71
2021/08/25 08:44:37;;;;;;;20.23;8.50;;;;;;;36.56;32.10;94494.03;10327284;28;20037;-71
2021/08/25 08:49:38;;;;;;;23.50;10.20;;;;;;;34.16;34.38;94491.63;10327292;28;20038;-71
2021/08/25 08:54:38;;;;;;;18.88;11.15;;;;;;;31.90;39.52;94507.44;10327266;28;20394;-72
2021/08/25 08:59:39;;;;;;;23.55;12.30;;;;;;;29.81;46.42;94509.97;10326595;28;20512;-72
2021/08/25 09:04:47;;;;;;;23.40;14.13;;;;;;;28.37;55.07;94516.53;10326157;28;20022;-71
2021/08/25 09:09:55;;;;;;;27.65;15.82;;;;;;;27.35;63.99;94514.63;10325437;28;20034;-71
2021/08/25 09:14:55;;;;;;;27.08;15.63;;;;;;;28.27;61.39;94507.03;10326521;28;20540;-71
2021/08/25 09:20:09;;;;;;;25.03;16.00;;;;;;;28.71;58.03;94502.34;10326323;28;20089;-71
2021/08/25 09:25:30;;;;;;;32.13;15.70;;;;;;;30.02;52.06;94491.66;10326002;28;20641;-71
2021/08/25 09:30:56;;;;;;;33.65;13.52;;;;;;;30.89;46.50;94491.84;10329731;28;20022;-71
2021/08/25 09:36:03;;;;;;;27.45;14.82;;;;;;;30.81;47.87;94489.16;10325721;28;20027;-71
2021/08/25 09:41:09;;;;;;;23.10;13.43;;;;;;;31.30;45.69;94493.81;10325458;28;20019;-71
2021/08/25 09:46:12;;;;;;;28.00;15.70;;;;;;;30.92;47.33;94485.47;10325169;28;20058;-71
2021/08/25 09:51:15;;;;;;;23.63;13.63;;;;;;;31.15;46.86;94488.44;10326469;28;20019;-71
2021/08/25 09:56:26;;;;;;;25.38;14.23;;;;;;;30.26;49.68;94487.19;10309372;28;20077;-71
2021/08/25 10:01:28;;;;;;;26.52;13.77;;;;;;;29.25;53.91;94501.47;10327338;28;20049;-71
2021/08/25 10:06:28;;;;;;;20.23;12.18;;;;;;;29.35;54.78;94489.59;10309217;28;20473;-71
2021/08/25 10:11:31;;;;;;;26.90;13.03;;;;;;;28.36;58.54;94487.31;10326871;28;20089;-71
2021/08/25 10:16:47;;;;;;;20.05;12.23;;;;;;;28.62;57.48;94491.69;10326855;28;20344;-70
2021/08/25 10:21:47;;;;;;;18.83;11.70;;;;;;;28.66;54.95;94485.34;10326934;28;20059;-71
2021/08/25 10:26:57;;;;;;;20.93;11.80;;;;;;;28.87;55.24;94490.88;10325351;28;20535;-72
2021/08/25 10:32:03;;;;;;;22.40;12.00;;;;;;;30.43;49.87;94466.88;10324236;28;20026;-70
2021/08/25 10:37:19;;;;;;;20.20;12.17;;;;;;;30.38;48.10;94469.25;10326366;28;20053;-70
2021/08/25 10:42:45;;;;;;;16.50;10.77;;;;;;;32.05;46.37;94475.44;10326883;28;20041;-71
2021/08/25 10:48:00;;;;;;;15.68;9.50;;;;;;;35.00;38.69;94457.75;10326404;28;20113;-71
2021/08/25 10:53:29;;;;;;;13.02;8.50;;;;;;;37.04;34.32;94435.25;10326162;28;20039;-71
2021/08/25 10:59:03;;;;;;;15.38;8.77;;;;;;;37.16;33.53;94441.25;10326172;28;20037;-71
2021/08/25 11:04:14;;;;;;;16.88;9.85;;;;;;;36.59;34.02;94431.53;10327906;28;20033;-71
2021/08/25 11:09:34;;;;;;;18.95;9.77;;;;;;;37.00;34.05;94428.22;10333290;28;20054;-71
2021/08/25 11:14:36;;;;;;;17.08;9.50;;;;;;;37.31;33.77;94433.16;10333669;28;20038;-71
2021/08/25 11:19:53;;;;;;;13.23;9.82;;;;;;;35.57;34.70;94435.03;10333063;28;20504;-71
2021/08/25 11:24:55;;;;;;;20.02;11.25;;;;;;;34.36;37.54;94435.78;10333030;28;20397;-71
2021/08/25 11:30:14;;;;;;;16.95;10.90;;;;;;;31.86;41.90;94441.56;10332498;28;20042;-70
2021/08/25 11:35:22;;;;;;;21.42;11.60;;;;;;;31.48;44.78;94438.06;10332864;28;20466;-71
2021/08/25 11:40:24;;;;;;;19.08;11.90;;;;;;;30.45;49.44;94425.66;10332454;28;20378;-71
2021/08/25 11:45:32;;;;;;;20.45;13.65;;;;;;;30.18;49.74;94422.69;10332171;28;20494;-71
2021/08/25 11:50:35;;;;;;;22.52;12.85;;;;;;;29.63;51.35;94413.13;10331902;28;20085;-71
2021/08/25 11:55:36;;;;;;;21.50;13.85;;;;;;;29.05;55.30;94410.56;10331779;28;20045;-71
2021/08/25 12:00:40;;;;;;;28.83;12.98;;;;;;;28.00;60.45;94389.81;10331438;28;20387;-71
2021/08/25 12:05:52;;;;;;;22.98;13.38;;;;;;;28.01;60.97;94389.41;10331274;28;20061;-71
2021/08/25 12:11:03;;;;;;;21.30;12.63;;;;;;;27.85;60.72;94375.16;10344773;28;20050;-71
2021/08/25 12:16:11;;;;;;;26.63;13.38;;;;;;;27.49;62.69;94370.38;10330365;28;20113;-71
2021/08/25 12:21:11;;;;;;;20.92;12.07;;;;;;;27.69;62.85;94367.25;10330795;28;20717;-71
2021/08/25 12:26:16;;;;;;;21.37;11.33;;;;;;;28.34;62.78;94342.41;10330452;28;20026;-71
2021/08/25 12:31:31;;;;;;;24.13;13.23;;;;;;;28.90;55.51;94324.09;10330488;28;20037;-72
2021/08/25 12:36:34;;;;;;;17.80;13.13;;;;;;;28.77;55.54;94314.66;10330251;28;20034;-71
2021/08/25 12:41:36;;;;;;;22.00;12.57;;;;;;;28.56;56.03;94313.50;10335252;28;20030;-71
2021/08/25 12:46:49;;;;;;;21.15;11.25;;;;;;;28.69;55.20;94315.88;10329680;28;20030;-71
2021/08/25 12:51:50;;;;;;;19.85;12.38;;;;;;;28.59;56.58;94298.91;10328726;28;20490;-71
2021/08/25 12:56:50;;;;;;;21.42;12.25;;;;;;;28.78;55.13;94311.50;10329246;28;20406;-71
2021/08/25 13:01:51;;;;;;;19.55;11.38;;;;;;;28.97;53.56;94301.16;10326592;28;20065;-72
2021/08/25 13:06:51;;;;;;;18.67;11.50;;;;;;;28.85;56.04;94296.84;10327210;28;20057;-71
2021/08/25 13:11:52;;;;;;;19.47;10.77;;;;;;;28.66;55.86;94303.63;10326797;28;20033;-71
2021/08/25 13:16:53;;;;;;;19.20;12.70;;;;;;;28.46;59.75;94298.53;10326387;28;20027;-71
2021/08/25 13:21:53;;;;;;;20.27;12.27;;;;;;;28.58;59.13;94294.56;10326317;28;20025;-71
2021/08/25 13:26:54;;;;;;;19.07;12.23;;;;;;;28.48;58.75;94290.66;10325499;28;20022;-72
2021/08/25 13:31:54;;;;;;;22.67;13.07;;;;;;;28.26;63.09;94294.66;10325560;28;20030;-72
2021/08/25 13:36:54;;;;;;;21.87;12.77;;;;;;;27.51;80.58;94314.78;10325067;28;20036;-72
2021/08/25 13:41:55;;;;;;;42.13;17.13;;;;;;;26.31;100.00;94343.03;10325661;28;20348;-71
2021/08/25 13:46:55;;;;;;;52.90;21.30;;;;;;;24.17;100.00;94314.47;10325663;28;20327;-71
2021/08/25 13:51:56;;;;;;;41.67;24.13;;;;;;;22.45;100.00;94354.06;10324834;28;20288;-71
2021/08/25 13:56:56;;;;;;;55.03;23.83;;;;;;;21.83;100.00;94373.75;10325536;28;20037;-71
2021/08/25 14:01:56;;;;;;;45.75;25.33;;;;;;;21.38;100.00;94394.06;10326267;28;20014;-71
2021/08/25 14:06:57;;;;;;;48.73;25.60;;;;;;;21.12;100.00;94426.19;10325768;28;20050;-71
2021/08/25 14:11:57;;;;;;;40.03;24.00;;;;;;;20.81;100.00;94432.34;10325914;28;20038;-71
2021/08/25 14:16:57;;;;;;;40.27;22.87;;;;;;;20.41;100.00;94439.31;10325634;28;20034;-71
2021/08/25 14:21:58;;;;;;;38.07;24.23;;;;;;;20.30;100.00;94438.19;10325771;28;20030;-71
2021/08/25 14:26:58;;;;;;;33.37;22.23;;;;;;;20.39;100.00;94432.63;10325246;28;20037;-71
2021/08/25 14:31:58;;;;;;;30.07;19.97;;;;;;;20.20;100.00;94427.75;10325266;28;20027;-71
2021/08/25 14:36:59;;;;;;;26.50;19.67;;;;;;;19.81;100.00;94411.72;10325214;28;20084;-71
2021/08/25 14:41:59;;;;;;;35.80;20.75;;;;;;;19.55;100.00;94439.25;10331257;28;20018;-71
2021/08/25 14:47:00;;;;;;;36.85;22.75;;;;;;;19.17;100.00;94467.53;10333133;28;20022;-71
2021/08/25 14:52:00;;;;;;;39.30;23.73;;;;;;;18.86;100.00;94461.34;10332557;28;20105;-71
2021/08/25 14:57:00;;;;;;;39.87;25.93;;;;;;;19.05;100.00;94451.94;10332347;28;20030;-71
2021/08/25 15:02:01;;;;;;;47.40;25.33;;;;;;;18.52;100.00;94440.63;10332726;28;20034;-71
2021/08/25 15:07:01;;;;;;;53.37;32.70;;;;;;;18.31;100.00;94433.22;10332476;28;20464;-71
2021/08/25 15:12:02;;;;;;;48.17;29.27;;;;;;;18.50;100.00;94453.75;10332106;28;20093;-72
2021/08/25 15:17:04;;;;;;;42.47;27.77;;;;;;;18.45;100.00;94441.16;10315471;28;20384;-72
2021/08/25 15:22:04;;;;;;;36.35;21.13;;;;;;;18.45;100.00;94392.16;10314445;28;20033;-72
2021/08/25 15:27:06;;;;;;;31.75;22.17;;;;;;;18.39;100.00;94388.03;10331210;28;20035;-72
2021/08/25 15:32:07;;;;;;;31.08;21.58;;;;;;;18.49;100.00;94420.31;10330854;28;20359;-72
2021/08/25 15:37:07;;;;;;;36.33;24.08;;;;;;;18.48;100.00;94440.47;10330704;28;20022;-72
2021/08/25 15:42:08;;;;;;;31.67;21.17;;;;;;;18.44;100.00;94417.78;10330589;28;20035;-71
2021/08/25 15:47:08;;;;;;;35.83;24.10;;;;;;;18.35;100.00;94436.88;10330426;28;20022;-71
2021/08/25 15:52:08;;;;;;;40.47;25.08;;;;;;;18.26;100.00;94457.91;10329101;28;20037;-71
2021/08/25 15:57:09;;;;;;;33.57;20.30;;;;;;;18.29;100.00;94419.16;10329628;28;20395;-71
2021/08/25 16:02:09;;;;;;;29.92;18.10;;;;;;;18.52;100.00;94384.28;10328347;28;20283;-71
2021/08/25 16:07:11;;;;;;;30.60;19.50;;;;;;;18.58;100.00;94385.66;10328995;28;20057;-72
2021/08/25 16:12:11;;;;;;;27.60;17.83;;;;;;;18.56;100.00;94401.53;10329968;28;20157;-72
2021/08/25 16:17:12;;;;;;;28.50;18.17;;;;;;;18.49;100.00;94387.66;10329565;28;20413;-71
2021/08/25 16:22:12;;;;;;;26.80;17.87;;;;;;;18.43;100.00;94395.22;10329593;28;20498;-71
2021/08/25 16:27:12;;;;;;;35.43;20.27;;;;;;;18.36;100.00;94380.53;10328607;28;20497;-71
2021/08/25 16:32:13;;;;;;;35.60;19.23;;;;;;;18.33;100.00;94411.91;10328458;28;20265;-72
2021/08/25 16:37:14;;;;;;;33.17;21.07;;;;;;;18.34;100.00;94418.97;10328074;28;20026;-72
2021/08/25 16:42:15;;;;;;;33.72;22.65;;;;;;;18.26;100.00;94419.81;10328511;28;20700;-72
2021/08/25 16:47:15;;;;;;;29.53;21.90;;;;;;;18.28;100.00;94421.09;10342333;28;20034;-72
2021/08/25 16:52:15;;;;;;;36.40;24.50;;;;;;;18.25;100.00;94442.69;10327249;28;20100;-72
2021/08/25 16:57:16;;;;;;;35.10;21.40;;;;;;;18.26;100.00;94422.53;10328386;28;20022;-72
2021/08/25 17:02:17;;;;;;;33.07;20.00;;;;;;;18.40;100.00;94444.06;10327300;28;20083;-72
2021/08/25 17:07:18;;;;;;;35.10;21.52;;;;;;;18.21;100.00;94475.22;10327204;28;20042;-71
2021/08/25 17:12:19;;;;;;;31.37;20.47;;;;;;;18.00;100.00;94464.28;10327306;28;20049;-71
2021/08/25 17:17:23;;;;;;;43.20;24.27;;;;;;;18.07;100.00;94474.63;10327672;28;20030;-71
2021/08/25 17:22:25;;;;;;;33.38;20.33;;;;;;;18.02;100.00;94466.66;10327234;28;20079;-71
2021/08/25 17:27:28;;;;;;;29.75;19.55;;;;;;;18.04;100.00;94489.69;10327252;28;20037;-71
2021/08/25 17:32:28;;;;;;;32.72;20.55;;;;;;;17.93;100.00;94513.72;10326852;28;20034;-71
2021/08/25 17:37:28;;;;;;;35.80;21.73;;;;;;;17.89;100.00;94503.81;10309604;28;20563;-71
2021/08/25 17:42:29;;;;;;;27.17;19.63;;;;;;;17.86;100.00;94570.50;10326593;28;20273;-71
2021/08/25 17:47:29;;;;;;;40.97;25.93;;;;;;;17.87;100.00;94622.94;10326120;28;20029;-71
2021/08/25 17:52:38;;;;;;;54.67;30.63;;;;;;;17.81;100.00;94608.72;10326539;28;20288;-71
2021/08/25 17:57:39;;;;;;;39.67;25.80;;;;;;;17.79;100.00;94545.72;10325889;28;20086;-71
2021/08/25 18:02:42;;;;;;;36.80;24.15;;;;;;;17.79;100.00;94550.34;10326401;28;20490;-71
2021/08/25 18:07:42;;;;;;;41.55;25.60;;;;;;;17.81;100.00;94570.66;10325727;28;20112;-71
2021/08/25 18:12:43;;;;;;;47.37;28.70;;;;;;;17.78;100.00;94598.50;10325112;28;20049;-71
2021/08/25 18:17:45;;;;;;;41.83;28.40;;;;;;;17.91;100.00;94613.03;10324827;28;20038;-71
2021/08/25 18:22:45;;;;;;;53.05;33.25;;;;;;;17.98;100.00;94605.19;10325236;28;20201;-72
2021/08/25 18:27:45;;;;;;;40.70;27.23;;;;;;;17.91;100.00;94629.34;10324738;28;20034;-71
2021/08/25 18:32:46;;;;;;;43.93;26.60;;;;;;;17.91;100.00;94629.34;10307469;28;20276;-71
2021/08/25 18:37:46;;;;;;;45.20;28.87;;;;;;;17.98;100.00;94628.88;10325098;28;20292;-71
2021/08/25 18:42:47;;;;;;;46.93;30.90;;;;;;;17.88;100.00;94617.16;10324621;28;20284;-71
2021/08/25 18:47:47;;;;;;;40.90;28.27;;;;;;;17.77;100.00;94632.22;10324458;28;20290;-71
2021/08/25 18:52:47;;;;;;;46.03;27.33;;;;;;;17.74;100.00;94633.66;10324691;28;20265;-71
2021/08/25 18:57:48;;;;;;;44.88;30.92;;;;;;;17.53;100.00;94636.22;10324931;28;20122;-71
2021/08/25 19:02:48;;;;;;;53.08;32.67;;;;;;;17.45;100.00;94666.13;10307313;28;20018;-72
2021/08/25 19:07:49;;;;;;;62.30;36.10;;;;;;;17.40;100.00;94705.91;10324772;28;20049;-71
2021/08/25 19:12:49;;;;;;;67.13;39.67;;;;;;;17.41;100.00;94737.41;10307084;28;20649;-71
2021/08/25 19:17:50;;;;;;;70.32;40.50;;;;;;;17.67;100.00;94723.03;10324932;28;20101;-71
2021/08/25 19:22:50;;;;;;;60.97;37.17;;;;;;;17.73;100.00;94712.81;10324818;28;20034;-71
2021/08/25 19:27:51;;;;;;;64.53;40.30;;;;;;;17.71;100.00;94726.72;10328387;28;20027;-72
2021/08/25 19:32:52;;;;;;;71.13;41.30;;;;;;;17.88;100.00;94706.88;10331479;28;20022;-71
2021/08/25 19:37:52;;;;;;;65.82;38.92;;;;;;;17.81;100.00;94719.38;10331352;28;20022;-71
2021/08/25 19:42:53;;;;;;;78.00;43.30;;;;;;;17.57;100.00;94743.16;10330799;28;20026;-71
2021/08/25 19:47:53;;;;;;;88.73;46.70;;;;;;;17.41;100.00;94761.84;10329189;28;20033;-71
2021/08/25 19:52:55;;;;;;;83.63;43.63;;;;;;;17.30;100.00;94781.47;10329724;28;20276;-71
2021/08/25 19:57:56;;;;;;;91.05;40.47;;;;;;;17.39;100.00;94776.84;10331974;28;20454;-71
2021/08/25 20:02:56;;;;;;;84.60;36.27;;;;;;;17.12;100.00;94778.69;10330432;28;20085;-71
2021/08/25 20:07:56;;;;;;;71.67;34.70;;;;;;;16.99;100.00;94769.50;10323264;28;20828;-71
2021/08/25 20:12:57;;;;;;;70.00;34.00;;;;;;;16.96;100.00;94739.50;10332731;28;20493;-71
2021/08/25 20:17:57;;;;;;;79.33;34.63;;;;;;;17.14;100.00;94699.63;10365723;28;20327;-72
2021/08/25 20:22:57;;;;;;;70.70;32.97;;;;;;;17.23;100.00;94662.41;10370448;28;20022;-72
2021/08/25 20:27:58;;;;;;;60.53;29.90;;;;;;;17.14;100.00;94659.69;10352888;28;20033;-72
2021/08/25 20:32:58;;;;;;;60.07;31.47;;;;;;;17.05;100.00;94699.56;10309620;28;20023;-71
2021/08/25 20:37:59;;;;;;;65.15;30.00;;;;;;;17.16;100.00;94716.38;10288802;28;20030;-71
2021/08/25 20:42:59;;;;;;;64.93;32.60;;;;;;;17.25;100.00;94728.88;10289796;28;20031;-72
2021/08/25 20:47:59;;;;;;;60.13;29.67;;;;;;;17.32;100.00;94717.56;10289076;28;20289;-72
2021/08/25 20:53:03;;;;;;;54.20;29.13;;;;;;;17.25;100.00;94706.34;10287642;28;20123;-72
2021/08/25 20:58:03;;;;;;;53.47;23.15;;;;;;;17.24;100.00;94710.19;10294870;28;20297;-72
2021/08/25 21:03:03;;;;;;;44.17;24.27;;;;;;;17.29;100.00;94695.63;10295166;28;20026;-72
2021/08/25 21:08:04;;;;;;;40.28;23.08;;;;;;;17.03;100.00;94694.47;10328453;28;20871;-71
2021/08/25 21:13:05;;;;;;;46.35;23.67;;;;;;;17.10;100.00;94683.16;10291917;28;20031;-72
2021/08/25 21:18:05;;;;;;;43.75;21.75;;;;;;;17.16;100.00;94681.09;10288470;28;20035;-72
2021/08/25 21:23:06;;;;;;;44.23;22.53;;;;;;;17.12;100.00;94670.06;10287932;28;20103;-71
2021/08/25 21:28:06;;;;;;;43.33;20.88;;;;;;;17.09;100.00;94670.69;10288188;28;20037;-72
2021/08/25 21:33:06;;;;;;;35.13;18.27;;;;;;;17.01;100.00;94658.69;10287667;28;20092;-71
2021/08/25 21:38:07;;;;;;;41.73;20.87;;;;;;;16.84;100.00;94639.59;10286639;28;20700;-72
2021/08/25 21:43:07;;;;;;;43.40;21.07;;;;;;;16.82;100.00;94650.78;10287323;28;20035;-72
2021/08/25 21:48:08;;;;;;;37.22;19.95;;;;;;;16.85;100.00;94633.84;10286056;28;20483;-72
2021/08/25 21:53:09;;;;;;;37.43;19.47;;;;;;;16.85;100.00;94630.34;10286162;28;20113;-72
2021/08/25 21:58:10;;;;;;;38.72;18.75;;;;;;;16.91;100.00;94632.66;10286541;28;20023;-72
2021/08/25 22:03:10;;;;;;;35.13;18.27;;;;;;;16.91;100.00;94629.13;10286363;28;20139;-72
2021/08/25 22:08:12;;;;;;;37.13;19.83;;;;;;;16.79;100.00;94640.56;10286026;28;20101;-72
2021/08/25 22:13:12;;;;;;;40.20;18.75;;;;;;;16.83;100.00;94638.81;10285986;28;20061;-72
2021/08/25 22:18:12;;;;;;;41.07;20.57;;;;;;;16.77;100.00;94641.97;10285926;28;20045;-72
2021/08/25 22:23:13;;;;;;;41.33;21.38;;;;;;;16.76;100.00;94643.91;10285863;28;20323;-72
2021/08/25 22:28:13;;;;;;;34.07;17.67;;;;;;;16.79;100.00;94648.69;10284600;28;20031;-71
2021/08/25 22:33:14;;;;;;;40.83;18.65;;;;;;;16.79;100.00;94643.28;10283129;28;20119;-72
2021/08/25 22:38:14;;;;;;;37.40;16.65;;;;;;;16.69;100.00;94636.22;10285099;28;20072;-72
2021/08/25 22:43:14;;;;;;;30.97;16.00;;;;;;;16.66;100.00;94638.75;10284525;28;20111;-72
2021/08/25 22:48:15;;;;;;;39.53;16.87;;;;;;;16.68;100.00;94637.31;10285434;28;20026;-72